Narowal Weather



Narowal's Current Weather

Temprature 42o scattered clouds

scattered clouds

Rain: 0 %

Min Temprature42o
Max Temprature42o
Humidity12
Wind Speed5.1 m/h
Sun Rise04:55:47
Sun Set19:10:32
Current Time: 26-Jun-2019 15:44:17
Lat/Lon: 32.1, 74.87




Narowal's Geo Location



Narowal's Weather Forecast

Time Overall Temp Min Temp Max Temp Humidity Wind Speed Rain
26-Jun-2019 (Wed)
17:00:00 clear sky 42.200 42.200 43.450 11 4.21 m/h 0 %
20:00:00 clear sky 38.310 38.310 39.247 15 1.31 m/h 0 %
23:00:00 clear sky 36.520 36.520 37.140 19 2.85 m/h 0 %
27-Jun-2019 (Thu)
02:00:00 clear sky 34.670 34.670 34.979 18 1.86 m/h 0 %
05:00:00 clear sky 32.865 32.865 32.865 21 1.91 m/h 0 %
08:00:00 clear sky 37.350 37.350 37.350 18 2.21 m/h 0 %
11:00:00 clear sky 43.174 43.174 43.174 12 1.6 m/h 0 %
14:00:00 broken clouds 44.950 44.950 44.950 9 2.94 m/h 0 %
17:00:00 scattered clouds 44.880 44.880 44.880 8 5.73 m/h 0 %
20:00:00 clear sky 37.994 37.994 37.994 21 3.65 m/h 0 %
23:00:00 clear sky 36.535 36.535 36.535 24 5.45 m/h 0 %
28-Jun-2019 (Fri)
02:00:00 clear sky 35.028 35.028 35.028 26 3.03 m/h 0 %
05:00:00 clear sky 33.128 33.128 33.128 29 2.26 m/h 0 %
08:00:00 clear sky 38.019 38.019 38.019 22 2.74 m/h 0 %
11:00:00 clear sky 44.025 44.025 44.025 13 4.77 m/h 0 %
14:00:00 few clouds 46.331 46.331 46.331 8 4.16 m/h 0 %
17:00:00 clear sky 44.150 44.150 44.150 12 7.71 m/h 0 %
20:00:00 broken clouds 40.650 40.650 40.650 15 6.09 m/h 0 %
23:00:00 scattered clouds 37.272 37.272 37.272 20 3.35 m/h 0 %
29-Jun-2019 (Sat)
02:00:00 clear sky 35.472 35.472 35.472 24 2.56 m/h 0 %
05:00:00 clear sky 34.269 34.269 34.269 29 2.77 m/h 0 %
08:00:00 clear sky 39.427 39.427 39.427 22 3.2 m/h 0 %
11:00:00 clear sky 44.350 44.350 44.350 16 4.95 m/h 0 %
14:00:00 clear sky 47.050 47.050 47.050 11 4.95 m/h 0 %
17:00:00 clear sky 46.691 46.691 46.691 10 4.56 m/h 0 %
20:00:00 few clouds 41.850 41.850 41.850 15 3.72 m/h 0 %
23:00:00 few clouds 40.050 40.050 40.050 17 4.77 m/h 0 %
30-Jun-2019 (Sun)
02:00:00 clear sky 37.866 37.866 37.866 19 3.05 m/h 0 %
05:00:00 clear sky 35.512 35.512 35.512 22 3.25 m/h 0 %
08:00:00 clear sky 40.212 40.212 40.212 20 5.26 m/h 0 %
11:00:00 clear sky 44.818 44.818 44.818 14 4.52 m/h 0 %
14:00:00 clear sky 47.208 47.208 47.208 11 4.34 m/h 0 %
17:00:00 clear sky 46.450 46.450 46.450 11 4.98 m/h 0 %
20:00:00 light rain 40.750 40.750 40.750 16 4.76 m/h 19 %
23:00:00 light rain 38.550 38.550 38.550 19 2.5 m/h 19 %
01-Jul-2019 (Mon)
02:00:00 broken clouds 37.050 37.050 37.050 23 2.74 m/h 0 %
05:00:00 scattered clouds 35.335 35.335 35.335 26 2.01 m/h 0 %
08:00:00 clear sky 39.850 39.850 39.850 19 2.11 m/h 0 %
11:00:00 clear sky 43.950 43.950 43.950 16 3.96 m/h 0 %
14:00:00 clear sky 47.750 47.750 47.750 12 4.79 m/h 0 %

Famous Cities (60)